NKS746 KDTW-KDFW
Flight info
| Callsign | NKS746 |
|---|---|
| Flight time | 2h 45m |
| Altitude | 32000 |
| Route | SNDRS3 BGHRT STL RZC FSM RRNET SEEVR4 |
| Aircraft | A320/M-SDE3FGHIRWY/LB1 |
Departure
| Time | 2026-05-05 18:26 |
|---|---|
| Airport | Detroit Metropolitan Wayne County Airport (KDTW) |
Arrival
| Time | 2026-05-05 21:11 |
|---|---|
| Airport | Dallas Fort Worth International Airport (KDFW) |
| Time | Latitude | Longitude | Altitude | Speed | Heading |
|---|---|---|---|---|---|
| 2026-05-05 17:58 | 42.22376 | -83.35056 | 646 ft | 0 kts | 118° |
| 2026-05-05 18:10 | 42.22381 | -83.35070 | 646 ft | 3 kts | 118° |
| 2026-05-05 18:10 | 42.22391 | -83.35094 | 648 ft | 2 kts | 118° |
| 2026-05-05 18:10 | 42.22400 | -83.35115 | 648 ft | 3 kts | 136° |
| 2026-05-05 18:10 | 42.22416 | -83.35129 | 647 ft | 3 kts | 178° |
| 2026-05-05 18:11 | 42.22434 | -83.35123 | 648 ft | 3 kts | 208° |
| 2026-05-05 18:11 | 42.22446 | -83.35114 | 646 ft | 0 kts | 208° |
| 2026-05-05 18:18 | 42.22445 | -83.35114 | 646 ft | 1 kts | 208° |
| 2026-05-05 18:18 | 42.22437 | -83.35131 | 649 ft | 5 kts | 233° |
| 2026-05-05 18:18 | 42.22399 | -83.35200 | 646 ft | 12 kts | 234° |
| 2026-05-05 18:18 | 42.22342 | -83.35295 | 646 ft | 14 kts | 220° |
| 2026-05-05 18:19 | 42.22258 | -83.35371 | 646 ft | 15 kts | 211° |
| 2026-05-05 18:19 | 42.22165 | -83.35441 | 646 ft | 15 kts | 208° |
| 2026-05-05 18:19 | 42.22067 | -83.35513 | 646 ft | 17 kts | 209° |
| 2026-05-05 18:19 | 42.21960 | -83.35591 | 645 ft | 16 kts | 205° |
| 2026-05-05 18:20 | 42.21874 | -83.35543 | 647 ft | 15 kts | 148° |
| 2026-05-05 18:20 | 42.21821 | -83.35454 | 646 ft | 12 kts | 92° |
| 2026-05-05 18:20 | 42.21824 | -83.35330 | 647 ft | 14 kts | 89° |
| 2026-05-05 18:20 | 42.21826 | -83.35197 | 646 ft | 15 kts | 88° |
| 2026-05-05 18:21 | 42.21829 | -83.35055 | 646 ft | 16 kts | 89° |
| 2026-05-05 18:21 | 42.21831 | -83.34904 | 646 ft | 17 kts | 89° |
| 2026-05-05 18:21 | 42.21834 | -83.34747 | 646 ft | 17 kts | 89° |
| 2026-05-05 18:21 | 42.21836 | -83.34592 | 647 ft | 14 kts | 89° |
| 2026-05-05 18:22 | 42.21868 | -83.34491 | 647 ft | 13 kts | 34° |
| 2026-05-05 18:22 | 42.21952 | -83.34430 | 647 ft | 15 kts | 28° |
| 2026-05-05 18:22 | 42.22045 | -83.34361 | 646 ft | 16 kts | 28° |
| 2026-05-05 18:22 | 42.22147 | -83.34286 | 647 ft | 18 kts | 28° |
| 2026-05-05 18:23 | 42.22257 | -83.34205 | 646 ft | 18 kts | 28° |
| 2026-05-05 18:23 | 42.22371 | -83.34121 | 646 ft | 19 kts | 28° |
| 2026-05-05 18:23 | 42.22493 | -83.34032 | 646 ft | 21 kts | 28° |
| 2026-05-05 18:23 | 42.22623 | -83.33936 | 646 ft | 22 kts | 29° |
| 2026-05-05 18:24 | 42.22728 | -83.33859 | 647 ft | 9 kts | 29° |
| 2026-05-05 18:24 | 42.22752 | -83.33800 | 646 ft | 8 kts | 103° |
| 2026-05-05 18:24 | 42.22725 | -83.33733 | 647 ft | 9 kts | 127° |
| 2026-05-05 18:24 | 42.22670 | -83.33734 | 647 ft | 8 kts | 206° |
| 2026-05-05 18:25 | 42.22657 | -83.33742 | 647 ft | 0 kts | 206° |
| 2026-05-05 18:25 | 42.22657 | -83.33743 | 647 ft | 0 kts | 206° |
| 2026-05-05 18:25 | 42.22638 | -83.33755 | 649 ft | 9 kts | 207° |
| 2026-05-05 18:26 | 42.22483 | -83.33871 | 647 ft | 55 kts | 209° |
| 2026-05-05 18:26 | 42.21964 | -83.34254 | 647 ft | 112 kts | 209° |
| 2026-05-05 18:26 | 42.21153 | -83.34867 | 667 ft | 153 kts | 214° |
| 2026-05-05 18:26 | 42.20247 | -83.35573 | 1308 ft | 148 kts | 214° |
| 2026-05-05 18:27 | 42.19349 | -83.36229 | 1909 ft | 150 kts | 211° |
| 2026-05-05 18:27 | 42.18377 | -83.36893 | 2296 ft | 160 kts | 208° |
| 2026-05-05 18:27 | 42.17291 | -83.37360 | 2699 ft | 169 kts | 198° |
| 2026-05-05 18:27 | 42.16098 | -83.37735 | 2995 ft | 186 kts | 199° |
| 2026-05-05 18:28 | 42.13311 | -83.38679 | 3451 ft | 230 kts | 199° |
| 2026-05-05 18:28 | 42.11734 | -83.39237 | 4101 ft | 235 kts | 200° |
| 2026-05-05 18:28 | 42.10169 | -83.39796 | 4992 ft | 231 kts | 201° |
| 2026-05-05 18:29 | 42.09157 | -83.40291 | 5501 ft | 230 kts | 213° |
| 2026-05-05 18:29 | 42.07391 | -83.41947 | 6423 ft | 236 kts | 220° |
| 2026-05-05 18:29 | 42.06498 | -83.42835 | 6976 ft | 237 kts | 220° |
| 2026-05-05 18:29 | 42.04739 | -83.44590 | 8057 ft | 239 kts | 220° |
| 2026-05-05 18:30 | 42.03836 | -83.45491 | 8617 ft | 240 kts | 220° |
| 2026-05-05 18:30 | 42.02490 | -83.46832 | 9440 ft | 242 kts | 220° |
| 2026-05-05 18:30 | 42.00682 | -83.48629 | 10322 ft | 251 kts | 221° |
| 2026-05-05 18:30 | 41.99705 | -83.49605 | 10467 ft | 266 kts | 221° |
| 2026-05-05 18:31 | 41.98159 | -83.51151 | 10617 ft | 289 kts | 220° |
| 2026-05-05 18:31 | 41.96490 | -83.52811 | 10859 ft | 305 kts | 220° |
| 2026-05-05 18:31 | 41.94760 | -83.54521 | 11414 ft | 311 kts | 220° |
| 2026-05-05 18:31 | 41.93003 | -83.56251 | 12023 ft | 315 kts | 220° |
| 2026-05-05 18:32 | 41.91228 | -83.57998 | 12615 ft | 319 kts | 220° |
| 2026-05-05 18:32 | 41.89428 | -83.59770 | 13220 ft | 322 kts | 220° |
| 2026-05-05 18:32 | 41.87613 | -83.61559 | 13795 ft | 326 kts | 220° |
| 2026-05-05 18:32 | 41.85779 | -83.63369 | 14321 ft | 329 kts | 220° |
| 2026-05-05 18:33 | 41.83928 | -83.65194 | 14852 ft | 332 kts | 220° |
| 2026-05-05 18:33 | 41.82060 | -83.67032 | 15373 ft | 334 kts | 220° |
| 2026-05-05 18:33 | 41.80178 | -83.68882 | 15849 ft | 338 kts | 220° |
| 2026-05-05 18:33 | 41.78274 | -83.70756 | 16354 ft | 341 kts | 220° |
| 2026-05-05 18:34 | 41.76356 | -83.72642 | 16887 ft | 343 kts | 220° |
| 2026-05-05 18:34 | 41.74424 | -83.74538 | 17427 ft | 346 kts | 220° |
| 2026-05-05 18:34 | 41.72476 | -83.76449 | 17961 ft | 348 kts | 220° |
| 2026-05-05 18:34 | 41.70513 | -83.78376 | 18444 ft | 351 kts | 220° |
| 2026-05-05 18:35 | 41.68476 | -83.80134 | 18878 ft | 356 kts | 216° |
| 2026-05-05 18:35 | 41.66349 | -83.81847 | 19350 ft | 358 kts | 216° |
| 2026-05-05 18:35 | 41.64206 | -83.83571 | 19825 ft | 361 kts | 216° |
| 2026-05-05 18:35 | 41.62047 | -83.85303 | 20209 ft | 362 kts | 216° |
| 2026-05-05 18:36 | 41.59887 | -83.87006 | 20303 ft | 358 kts | 215° |
| 2026-05-05 18:36 | 41.57752 | -83.88671 | 20427 ft | 354 kts | 215° |
| 2026-05-05 18:36 | 41.55638 | -83.90324 | 20550 ft | 350 kts | 216° |
| 2026-05-05 18:36 | 41.53553 | -83.91968 | 20688 ft | 346 kts | 216° |
| 2026-05-05 18:37 | 41.51497 | -83.93603 | 20798 ft | 343 kts | 216° |
| 2026-05-05 18:37 | 41.49434 | -83.95271 | 20933 ft | 352 kts | 217° |
| 2026-05-05 18:37 | 41.47317 | -83.97019 | 21071 ft | 363 kts | 217° |
| 2026-05-05 18:37 | 41.45146 | -83.98808 | 21377 ft | 370 kts | 217° |
| 2026-05-05 18:38 | 41.42940 | -84.00600 | 21758 ft | 373 kts | 217° |
| 2026-05-05 18:38 | 41.40712 | -84.02387 | 22123 ft | 376 kts | 217° |
| 2026-05-05 18:38 | 41.38452 | -84.04185 | 22481 ft | 380 kts | 216° |
| 2026-05-05 18:38 | 41.36171 | -84.05991 | 22871 ft | 383 kts | 216° |
| 2026-05-05 18:39 | 41.33875 | -84.07808 | 23259 ft | 386 kts | 217° |
| 2026-05-05 18:39 | 41.31562 | -84.09640 | 23609 ft | 388 kts | 217° |
| 2026-05-05 18:39 | 41.29240 | -84.11482 | 23956 ft | 389 kts | 217° |
| 2026-05-05 18:39 | 41.27063 | -84.13583 | 24304 ft | 384 kts | 226° |
| 2026-05-05 18:40 | 41.25245 | -84.16143 | 24641 ft | 380 kts | 236° |
| 2026-05-05 18:40 | 41.23814 | -84.19090 | 24977 ft | 378 kts | 245° |
| 2026-05-05 18:40 | 41.22774 | -84.22293 | 25308 ft | 378 kts | 250° |
| 2026-05-05 18:40 | 41.21807 | -84.25548 | 25644 ft | 380 kts | 249° |
| 2026-05-05 18:41 | 41.20833 | -84.28814 | 25992 ft | 381 kts | 249° |
| 2026-05-05 18:41 | 41.19852 | -84.32090 | 26334 ft | 382 kts | 249° |
| 2026-05-05 18:41 | 41.18866 | -84.35378 | 26678 ft | 384 kts | 249° |
| 2026-05-05 18:41 | 41.17878 | -84.38675 | 27032 ft | 385 kts | 249° |
| 2026-05-05 18:42 | 41.16885 | -84.41987 | 27383 ft | 386 kts | 249° |
| 2026-05-05 18:42 | 41.15894 | -84.45282 | 27863 ft | 384 kts | 249° |
| 2026-05-05 18:42 | 41.14904 | -84.48560 | 28358 ft | 381 kts | 249° |
| 2026-05-05 18:42 | 41.13918 | -84.51817 | 28847 ft | 379 kts | 249° |
| 2026-05-05 18:43 | 41.12950 | -84.55013 | 29341 ft | 377 kts | 249° |
| 2026-05-05 18:43 | 41.11975 | -84.58231 | 29839 ft | 375 kts | 249° |
| 2026-05-05 18:43 | 41.11006 | -84.61429 | 30277 ft | 373 kts | 249° |
| 2026-05-05 18:43 | 41.10128 | -84.64656 | 30672 ft | 371 kts | 255° |
| 2026-05-05 18:44 | 41.09557 | -84.67981 | 31078 ft | 369 kts | 257° |
| 2026-05-05 18:44 | 41.09004 | -84.71300 | 31491 ft | 368 kts | 257° |
| 2026-05-05 18:44 | 41.08451 | -84.74605 | 31806 ft | 368 kts | 258° |
| 2026-05-05 18:44 | 41.07895 | -84.77918 | 31874 ft | 372 kts | 258° |
| 2026-05-05 18:45 | 41.06751 | -84.84697 | 31880 ft | 379 kts | 257° |
| 2026-05-05 18:45 | 41.05582 | -84.91528 | 31885 ft | 380 kts | 257° |
| 2026-05-05 18:46 | 41.04413 | -84.98359 | 31889 ft | 380 kts | 257° |
| 2026-05-05 18:46 | 41.03242 | -85.05190 | 31916 ft | 380 kts | 258° |
| 2026-05-05 18:47 | 41.02071 | -85.12012 | 31874 ft | 380 kts | 258° |
| 2026-05-05 18:47 | 41.00900 | -85.18835 | 31876 ft | 380 kts | 258° |
| 2026-05-05 18:48 | 40.99715 | -85.25666 | 31876 ft | 381 kts | 258° |
| 2026-05-05 18:48 | 40.98525 | -85.32502 | 31874 ft | 381 kts | 258° |
| 2026-05-05 18:49 | 40.97334 | -85.39344 | 31882 ft | 382 kts | 258° |
| 2026-05-05 18:49 | 40.96138 | -85.46197 | 31905 ft | 381 kts | 259° |
| 2026-05-05 18:50 | 40.94938 | -85.53015 | 31913 ft | 380 kts | 259° |
| 2026-05-05 18:50 | 40.93740 | -85.59810 | 31911 ft | 379 kts | 259° |
| 2026-05-05 18:51 | 40.92541 | -85.66597 | 31907 ft | 379 kts | 259° |
| 2026-05-05 18:51 | 40.91337 | -85.73368 | 31900 ft | 378 kts | 259° |
| 2026-05-05 18:52 | 40.90131 | -85.80140 | 31895 ft | 378 kts | 259° |
| 2026-05-05 18:52 | 40.88924 | -85.86903 | 31891 ft | 378 kts | 259° |
| 2026-05-05 18:53 | 40.88014 | -85.93729 | 31895 ft | 377 kts | 263° |
| 2026-05-05 18:53 | 40.87282 | -86.00595 | 31897 ft | 377 kts | 263° |
| 2026-05-05 18:54 | 40.86556 | -86.07405 | 31900 ft | 377 kts | 263° |
| 2026-05-05 18:54 | 40.85814 | -86.14263 | 31900 ft | 377 kts | 263° |
| 2026-05-05 18:55 | 40.85070 | -86.21127 | 31918 ft | 377 kts | 263° |
| 2026-05-05 18:55 | 40.84324 | -86.27960 | 31878 ft | 375 kts | 264° |
| 2026-05-05 18:56 | 40.83577 | -86.34774 | 31886 ft | 374 kts | 264° |
| 2026-05-05 18:56 | 40.82829 | -86.41575 | 31890 ft | 374 kts | 264° |
| 2026-05-05 18:57 | 40.82077 | -86.48369 | 31895 ft | 374 kts | 264° |
| 2026-05-05 18:57 | 40.81320 | -86.55163 | 31906 ft | 374 kts | 264° |
| 2026-05-05 18:58 | 40.80558 | -86.61946 | 31923 ft | 373 kts | 264° |
| 2026-05-05 18:58 | 40.79797 | -86.68702 | 31922 ft | 371 kts | 264° |
| 2026-05-05 18:59 | 40.79034 | -86.75432 | 31919 ft | 370 kts | 264° |
| 2026-05-05 18:59 | 40.78267 | -86.82148 | 31923 ft | 370 kts | 264° |
| 2026-05-05 19:00 | 40.77493 | -86.88852 | 31921 ft | 369 kts | 264° |
| 2026-05-05 19:00 | 40.76727 | -86.95537 | 31933 ft | 369 kts | 264° |
| 2026-05-05 19:01 | 40.75958 | -87.02219 | 31928 ft | 368 kts | 264° |
| 2026-05-05 19:01 | 40.75185 | -87.08884 | 31923 ft | 367 kts | 264° |
| 2026-05-05 19:02 | 40.74405 | -87.15535 | 31914 ft | 367 kts | 264° |
| 2026-05-05 19:02 | 40.73620 | -87.22189 | 31909 ft | 367 kts | 264° |
| 2026-05-05 19:03 | 40.72841 | -87.28791 | 31905 ft | 367 kts | 263° |
| 2026-05-05 19:03 | 40.72047 | -87.35442 | 31910 ft | 367 kts | 263° |
| 2026-05-05 19:04 | 40.71249 | -87.42124 | 31918 ft | 366 kts | 263° |
| 2026-05-05 19:04 | 40.70465 | -87.48703 | 31917 ft | 366 kts | 263° |
| 2026-05-05 19:05 | 40.69672 | -87.55323 | 31916 ft | 365 kts | 263° |
| 2026-05-05 19:05 | 40.68862 | -87.61975 | 31914 ft | 365 kts | 263° |
| 2026-05-05 19:06 | 40.68058 | -87.68531 | 31914 ft | 365 kts | 263° |
| 2026-05-05 19:06 | 40.67247 | -87.75127 | 31924 ft | 364 kts | 263° |
| 2026-05-05 19:07 | 40.66434 | -87.81702 | 31927 ft | 363 kts | 263° |
| 2026-05-05 19:07 | 40.65629 | -87.88260 | 31925 ft | 363 kts | 263° |
| 2026-05-05 19:08 | 40.63934 | -87.94548 | 31922 ft | 373 kts | 245° |
| 2026-05-05 19:08 | 40.60573 | -87.99908 | 31913 ft | 382 kts | 237° |
| 2026-05-05 19:09 | 40.57033 | -88.05124 | 31909 ft | 382 kts | 237° |
| 2026-05-05 19:09 | 40.53497 | -88.10349 | 31920 ft | 382 kts | 237° |
| 2026-05-05 19:10 | 40.49969 | -88.15565 | 31945 ft | 381 kts | 237° |
| 2026-05-05 19:10 | 40.46448 | -88.20762 | 31948 ft | 381 kts | 237° |
| 2026-05-05 19:11 | 40.42924 | -88.25951 | 31913 ft | 381 kts | 237° |
| 2026-05-05 19:11 | 40.39386 | -88.31148 | 31914 ft | 382 kts | 237° |
| 2026-05-05 19:12 | 40.35840 | -88.36346 | 31916 ft | 383 kts | 237° |
| 2026-05-05 19:12 | 40.32287 | -88.41543 | 31917 ft | 383 kts | 237° |
| 2026-05-05 19:13 | 40.28729 | -88.46736 | 31912 ft | 383 kts | 237° |
| 2026-05-05 19:13 | 40.25171 | -88.51923 | 31920 ft | 382 kts | 237° |
| 2026-05-05 19:14 | 40.21622 | -88.57101 | 31891 ft | 382 kts | 238° |
| 2026-05-05 19:14 | 40.18068 | -88.62274 | 31889 ft | 383 kts | 238° |
| 2026-05-05 19:15 | 40.15106 | -88.66573 | 31896 ft | 383 kts | 238° |
| 2026-05-05 19:15 | 40.11536 | -88.71746 | 31903 ft | 384 kts | 238° |
| 2026-05-05 19:16 | 40.07955 | -88.76913 | 31900 ft | 383 kts | 237° |
| 2026-05-05 19:16 | 40.04379 | -88.82071 | 31925 ft | 383 kts | 238° |
| 2026-05-05 19:17 | 40.00800 | -88.87239 | 31894 ft | 384 kts | 238° |
| 2026-05-05 19:17 | 39.97219 | -88.92405 | 31908 ft | 384 kts | 238° |
| 2026-05-05 19:18 | 39.93622 | -88.97567 | 31918 ft | 385 kts | 238° |
| 2026-05-05 19:18 | 39.90019 | -89.02724 | 31926 ft | 385 kts | 238° |
| 2026-05-05 19:19 | 39.86424 | -89.07882 | 31902 ft | 385 kts | 238° |
| 2026-05-05 19:19 | 39.82822 | -89.13039 | 31919 ft | 385 kts | 238° |
| 2026-05-05 19:20 | 39.79214 | -89.18177 | 31902 ft | 385 kts | 238° |
| 2026-05-05 19:20 | 39.75598 | -89.23330 | 31927 ft | 386 kts | 238° |
| 2026-05-05 19:21 | 39.72007 | -89.28448 | 31949 ft | 385 kts | 238° |
| 2026-05-05 19:21 | 39.68391 | -89.33584 | 31970 ft | 385 kts | 238° |
| 2026-05-05 19:22 | 39.64774 | -89.38714 | 31966 ft | 385 kts | 238° |
| 2026-05-05 19:22 | 39.61159 | -89.43835 | 31968 ft | 385 kts | 238° |
| 2026-05-05 19:23 | 39.57543 | -89.48950 | 31925 ft | 385 kts | 237° |
| 2026-05-05 19:23 | 39.53916 | -89.54058 | 31930 ft | 385 kts | 237° |
| 2026-05-05 19:24 | 39.50290 | -89.59165 | 31934 ft | 385 kts | 237° |
| 2026-05-05 19:24 | 39.46656 | -89.64269 | 31934 ft | 386 kts | 237° |
| 2026-05-05 19:25 | 39.43017 | -89.69371 | 31932 ft | 386 kts | 237° |
| 2026-05-05 19:25 | 39.39384 | -89.74476 | 31936 ft | 386 kts | 237° |
| 2026-05-05 19:26 | 39.35746 | -89.79566 | 31935 ft | 386 kts | 237° |
| 2026-05-05 19:26 | 39.32103 | -89.84653 | 31914 ft | 386 kts | 237° |
| 2026-05-05 19:27 | 39.28454 | -89.89739 | 31921 ft | 386 kts | 237° |
| 2026-05-05 19:27 | 39.24803 | -89.94812 | 31927 ft | 386 kts | 237° |
| 2026-05-05 19:28 | 39.21157 | -89.99885 | 31945 ft | 386 kts | 237° |
| 2026-05-05 19:28 | 39.17511 | -90.04944 | 31943 ft | 385 kts | 237° |
| 2026-05-05 19:29 | 39.13864 | -90.09999 | 31954 ft | 385 kts | 237° |
| 2026-05-05 19:29 | 39.10216 | -90.15047 | 31906 ft | 385 kts | 236° |
| 2026-05-05 19:30 | 39.06569 | -90.20085 | 31916 ft | 385 kts | 236° |
| 2026-05-05 19:30 | 39.02910 | -90.25128 | 31923 ft | 385 kts | 236° |
| 2026-05-05 19:31 | 38.99270 | -90.30127 | 31932 ft | 386 kts | 236° |
| 2026-05-05 19:31 | 38.95585 | -90.35196 | 31936 ft | 386 kts | 236° |
| 2026-05-05 19:32 | 38.91915 | -90.40229 | 31945 ft | 386 kts | 236° |
| 2026-05-05 19:32 | 38.88273 | -90.45209 | 31905 ft | 385 kts | 236° |
| 2026-05-05 19:33 | 38.84624 | -90.50238 | 31918 ft | 384 kts | 237° |
| 2026-05-05 19:33 | 38.81116 | -90.55391 | 31923 ft | 383 kts | 238° |
| 2026-05-05 19:34 | 38.77658 | -90.60574 | 31919 ft | 383 kts | 238° |
| 2026-05-05 19:35 | 38.72418 | -90.68303 | 31924 ft | 383 kts | 237° |
| 2026-05-05 19:35 | 38.68905 | -90.73434 | 31923 ft | 383 kts | 237° |
| 2026-05-05 19:36 | 38.65395 | -90.78562 | 31924 ft | 383 kts | 237° |
| 2026-05-05 19:36 | 38.62104 | -90.83373 | 31910 ft | 384 kts | 237° |
| 2026-05-05 19:37 | 38.58954 | -90.87960 | 31920 ft | 384 kts | 237° |
| 2026-05-05 19:37 | 38.55421 | -90.93087 | 31925 ft | 384 kts | 237° |
| 2026-05-05 19:38 | 38.51887 | -90.98218 | 31949 ft | 385 kts | 237° |
| 2026-05-05 19:38 | 38.48355 | -91.03349 | 31955 ft | 385 kts | 237° |
| 2026-05-05 19:39 | 38.44817 | -91.08472 | 31956 ft | 385 kts | 237° |
| 2026-05-05 19:39 | 38.41280 | -91.13592 | 31955 ft | 385 kts | 237° |
| 2026-05-05 19:40 | 38.37759 | -91.18663 | 31958 ft | 384 kts | 237° |
| 2026-05-05 19:40 | 38.34219 | -91.23756 | 31961 ft | 384 kts | 237° |
| 2026-05-05 19:41 | 38.30683 | -91.28852 | 31962 ft | 383 kts | 237° |
| 2026-05-05 19:41 | 38.27152 | -91.33934 | 31956 ft | 383 kts | 237° |
| 2026-05-05 19:42 | 38.23607 | -91.39004 | 31948 ft | 383 kts | 237° |
| 2026-05-05 19:42 | 38.20065 | -91.44071 | 31942 ft | 383 kts | 237° |
| 2026-05-05 19:43 | 38.16520 | -91.49140 | 31901 ft | 383 kts | 237° |
| 2026-05-05 19:43 | 38.12974 | -91.54204 | 31902 ft | 384 kts | 237° |
| 2026-05-05 19:44 | 38.09419 | -91.59266 | 31913 ft | 384 kts | 237° |
| 2026-05-05 19:44 | 38.05861 | -91.64323 | 31920 ft | 384 kts | 236° |
| 2026-05-05 19:45 | 38.02302 | -91.69378 | 31925 ft | 384 kts | 237° |
| 2026-05-05 19:45 | 37.98739 | -91.74435 | 31927 ft | 385 kts | 236° |
| 2026-05-05 19:46 | 37.95174 | -91.79488 | 31901 ft | 385 kts | 236° |
| 2026-05-05 19:46 | 37.91602 | -91.84540 | 31883 ft | 385 kts | 236° |
| 2026-05-05 19:47 | 37.88019 | -91.89582 | 31882 ft | 385 kts | 236° |
| 2026-05-05 19:47 | 37.84431 | -91.94635 | 31884 ft | 386 kts | 236° |
| 2026-05-05 19:48 | 37.80845 | -91.99681 | 31894 ft | 385 kts | 236° |
| 2026-05-05 19:48 | 37.77257 | -92.04715 | 31901 ft | 385 kts | 236° |
| 2026-05-05 19:49 | 37.73695 | -92.09711 | 31906 ft | 385 kts | 236° |
| 2026-05-05 19:49 | 37.70115 | -92.14730 | 31905 ft | 384 kts | 236° |
| 2026-05-05 19:50 | 37.66532 | -92.19740 | 31875 ft | 385 kts | 236° |
| 2026-05-05 19:50 | 37.62939 | -92.24748 | 31875 ft | 385 kts | 236° |
| 2026-05-05 19:51 | 37.59349 | -92.29758 | 31883 ft | 385 kts | 236° |
| 2026-05-05 19:51 | 37.55755 | -92.34765 | 31884 ft | 385 kts | 236° |
| 2026-05-05 19:52 | 37.52158 | -92.39768 | 31895 ft | 385 kts | 236° |
| 2026-05-05 19:52 | 37.48561 | -92.44762 | 31895 ft | 385 kts | 236° |
| 2026-05-05 19:53 | 37.44962 | -92.49744 | 31855 ft | 385 kts | 236° |
| 2026-05-05 19:53 | 37.41360 | -92.54716 | 31866 ft | 384 kts | 236° |
| 2026-05-05 19:54 | 37.37761 | -92.59681 | 31871 ft | 384 kts | 236° |
| 2026-05-05 19:54 | 37.34164 | -92.64639 | 31869 ft | 384 kts | 236° |
| 2026-05-05 19:55 | 37.30573 | -92.69590 | 31869 ft | 383 kts | 235° |
| 2026-05-05 19:55 | 37.26981 | -92.74527 | 31866 ft | 383 kts | 236° |
| 2026-05-05 19:56 | 37.23394 | -92.79455 | 31854 ft | 382 kts | 235° |
| 2026-05-05 19:56 | 37.19802 | -92.84376 | 31821 ft | 382 kts | 236° |
| 2026-05-05 19:57 | 37.16215 | -92.89289 | 31837 ft | 381 kts | 236° |
| 2026-05-05 19:57 | 37.12635 | -92.94177 | 31846 ft | 380 kts | 236° |
| 2026-05-05 19:58 | 37.09059 | -92.99056 | 31837 ft | 380 kts | 236° |
| 2026-05-05 19:58 | 37.05480 | -93.03923 | 31840 ft | 380 kts | 236° |
| 2026-05-05 19:59 | 37.01908 | -93.08783 | 31826 ft | 380 kts | 236° |
| 2026-05-05 19:59 | 36.98326 | -93.13647 | 31822 ft | 380 kts | 236° |
| 2026-05-05 20:00 | 36.94743 | -93.18500 | 31790 ft | 380 kts | 236° |
| 2026-05-05 20:00 | 36.91159 | -93.23352 | 31813 ft | 380 kts | 236° |
| 2026-05-05 20:01 | 36.87579 | -93.28200 | 31823 ft | 380 kts | 236° |
| 2026-05-05 20:01 | 36.83992 | -93.33044 | 31834 ft | 380 kts | 236° |
| 2026-05-05 20:02 | 36.80432 | -93.37853 | 31843 ft | 380 kts | 236° |
| 2026-05-05 20:02 | 36.76835 | -93.42682 | 31847 ft | 380 kts | 236° |
| 2026-05-05 20:03 | 36.73239 | -93.47506 | 31847 ft | 380 kts | 236° |
| 2026-05-05 20:03 | 36.70231 | -93.51543 | 31848 ft | 380 kts | 236° |
| 2026-05-05 20:04 | 36.66633 | -93.56363 | 31800 ft | 380 kts | 236° |
| 2026-05-05 20:04 | 36.63037 | -93.61184 | 31799 ft | 380 kts | 236° |
| 2026-05-05 20:05 | 36.59457 | -93.65980 | 31804 ft | 381 kts | 236° |
| 2026-05-05 20:05 | 36.55822 | -93.70823 | 31787 ft | 381 kts | 235° |
| 2026-05-05 20:06 | 36.52225 | -93.75603 | 31802 ft | 380 kts | 235° |
| 2026-05-05 20:06 | 36.48587 | -93.80438 | 31820 ft | 380 kts | 235° |
| 2026-05-05 20:07 | 36.45004 | -93.85206 | 31844 ft | 379 kts | 236° |
| 2026-05-05 20:07 | 36.41404 | -93.89989 | 31831 ft | 379 kts | 236° |
| 2026-05-05 20:08 | 36.37808 | -93.94761 | 31853 ft | 378 kts | 236° |
| 2026-05-05 20:08 | 36.34212 | -93.99521 | 31862 ft | 378 kts | 236° |
| 2026-05-05 20:09 | 36.30609 | -94.04273 | 31859 ft | 378 kts | 236° |
| 2026-05-05 20:09 | 36.26973 | -94.08990 | 31839 ft | 382 kts | 232° |
| 2026-05-05 20:09 | 36.24804 | -94.10986 | 31842 ft | 397 kts | 221° |
| 2026-05-05 20:10 | 36.22223 | -94.12396 | 31837 ft | 416 kts | 209° |
| 2026-05-05 20:10 | 36.19317 | -94.13111 | 31836 ft | 432 kts | 201° |
| 2026-05-05 20:10 | 36.16341 | -94.13627 | 31806 ft | 432 kts | 201° |
| 2026-05-05 20:11 | 36.10382 | -94.14652 | 31817 ft | 433 kts | 201° |
| 2026-05-05 20:11 | 36.04415 | -94.15693 | 31794 ft | 433 kts | 201° |
| 2026-05-05 20:12 | 35.98451 | -94.16744 | 31797 ft | 433 kts | 201° |
| 2026-05-05 20:12 | 35.92480 | -94.17797 | 31802 ft | 433 kts | 201° |
| 2026-05-05 20:13 | 35.86508 | -94.18841 | 31799 ft | 433 kts | 201° |
| 2026-05-05 20:13 | 35.80532 | -94.19889 | 31747 ft | 434 kts | 201° |
| 2026-05-05 20:14 | 35.74604 | -94.20933 | 31756 ft | 433 kts | 201° |
| 2026-05-05 20:14 | 35.68604 | -94.21976 | 31773 ft | 432 kts | 201° |
| 2026-05-05 20:15 | 35.62698 | -94.23006 | 31742 ft | 432 kts | 201° |
| 2026-05-05 20:15 | 35.56702 | -94.24053 | 31741 ft | 432 kts | 201° |
| 2026-05-05 20:16 | 35.50792 | -94.25079 | 31745 ft | 432 kts | 201° |
| 2026-05-05 20:16 | 35.44838 | -94.26109 | 31749 ft | 432 kts | 201° |
| 2026-05-05 20:16 | 35.41908 | -94.26760 | 31717 ft | 420 kts | 208° |
| 2026-05-05 20:17 | 35.39214 | -94.27936 | 31721 ft | 404 kts | 217° |
| 2026-05-05 20:17 | 35.36777 | -94.29619 | 31726 ft | 391 kts | 226° |
| 2026-05-05 20:17 | 35.34684 | -94.31662 | 31730 ft | 381 kts | 232° |
| 2026-05-05 20:18 | 35.30751 | -94.35970 | 31735 ft | 382 kts | 232° |
| 2026-05-05 20:18 | 35.26762 | -94.40282 | 31742 ft | 383 kts | 231° |
| 2026-05-05 20:19 | 35.22735 | -94.44623 | 31747 ft | 383 kts | 231° |
| 2026-05-05 20:19 | 35.18768 | -94.48917 | 31751 ft | 383 kts | 231° |
| 2026-05-05 20:20 | 35.14776 | -94.53239 | 31727 ft | 384 kts | 231° |
| 2026-05-05 20:20 | 35.10779 | -94.57566 | 31744 ft | 384 kts | 231° |
| 2026-05-05 20:21 | 35.06765 | -94.61884 | 31749 ft | 385 kts | 231° |
| 2026-05-05 20:21 | 35.02748 | -94.66194 | 31755 ft | 384 kts | 231° |
| 2026-05-05 20:22 | 34.98739 | -94.70499 | 31758 ft | 384 kts | 231° |
| 2026-05-05 20:22 | 34.94728 | -94.74799 | 31757 ft | 384 kts | 231° |
| 2026-05-05 20:23 | 34.90723 | -94.79094 | 31760 ft | 384 kts | 231° |
| 2026-05-05 20:23 | 34.86713 | -94.83387 | 31732 ft | 384 kts | 231° |
| 2026-05-05 20:24 | 34.82699 | -94.87675 | 31747 ft | 384 kts | 231° |
| 2026-05-05 20:24 | 34.78584 | -94.92007 | 31753 ft | 400 kts | 230° |
| 2026-05-05 20:25 | 34.74267 | -94.96401 | 31752 ft | 406 kts | 229° |
| 2026-05-05 20:25 | 34.69918 | -95.00775 | 31758 ft | 406 kts | 229° |
| 2026-05-05 20:26 | 34.65578 | -95.05170 | 31752 ft | 406 kts | 229° |
| 2026-05-05 20:26 | 34.61256 | -95.09572 | 31730 ft | 406 kts | 230° |
| 2026-05-05 20:27 | 34.56932 | -95.13982 | 31735 ft | 406 kts | 230° |
| 2026-05-05 20:27 | 34.52603 | -95.18387 | 31737 ft | 406 kts | 230° |
| 2026-05-05 20:28 | 34.48267 | -95.22787 | 31745 ft | 406 kts | 229° |
| 2026-05-05 20:28 | 34.43959 | -95.27139 | 31745 ft | 406 kts | 229° |
| 2026-05-05 20:29 | 34.39606 | -95.31513 | 31749 ft | 406 kts | 229° |
| 2026-05-05 20:29 | 34.35260 | -95.35884 | 31720 ft | 406 kts | 229° |
| 2026-05-05 20:30 | 34.30920 | -95.40249 | 31738 ft | 405 kts | 229° |
| 2026-05-05 20:30 | 34.26585 | -95.44605 | 31750 ft | 405 kts | 229° |
| 2026-05-05 20:31 | 34.22241 | -95.48949 | 31755 ft | 405 kts | 229° |
| 2026-05-05 20:31 | 34.17900 | -95.53283 | 31757 ft | 405 kts | 229° |
| 2026-05-05 20:32 | 34.13566 | -95.57627 | 31761 ft | 405 kts | 229° |
| 2026-05-05 20:32 | 34.09230 | -95.61958 | 31762 ft | 405 kts | 229° |
| 2026-05-05 20:33 | 34.04885 | -95.66280 | 31719 ft | 405 kts | 229° |
| 2026-05-05 20:33 | 34.00529 | -95.70598 | 31725 ft | 405 kts | 229° |
| 2026-05-05 20:33 | 33.98340 | -95.72757 | 31374 ft | 407 kts | 229° |
| 2026-05-05 20:34 | 33.96138 | -95.74935 | 30346 ft | 413 kts | 229° |
| 2026-05-05 20:34 | 33.93914 | -95.77150 | 29236 ft | 417 kts | 229° |
| 2026-05-05 20:34 | 33.91712 | -95.79354 | 28444 ft | 414 kts | 229° |
| 2026-05-05 20:34 | 33.89520 | -95.81546 | 27851 ft | 406 kts | 229° |
| 2026-05-05 20:35 | 33.87348 | -95.83716 | 27060 ft | 404 kts | 229° |
| 2026-05-05 20:35 | 33.85198 | -95.85861 | 26433 ft | 399 kts | 229° |
| 2026-05-05 20:35 | 33.83079 | -95.87976 | 25800 ft | 394 kts | 229° |
| 2026-05-05 20:35 | 33.80977 | -95.90065 | 25150 ft | 390 kts | 228° |
| 2026-05-05 20:36 | 33.78889 | -95.92127 | 24554 ft | 386 kts | 228° |
| 2026-05-05 20:36 | 33.76820 | -95.94166 | 23947 ft | 383 kts | 228° |
| 2026-05-05 20:36 | 33.74768 | -95.96188 | 23341 ft | 380 kts | 228° |
| 2026-05-05 20:36 | 33.72733 | -95.98195 | 22661 ft | 377 kts | 228° |
| 2026-05-05 20:37 | 33.70714 | -96.00181 | 22065 ft | 374 kts | 227° |
| 2026-05-05 20:37 | 33.69359 | -96.01515 | 21662 ft | 372 kts | 227° |
| 2026-05-05 20:37 | 33.66723 | -96.04112 | 20880 ft | 368 kts | 226° |
| 2026-05-05 20:37 | 33.64749 | -96.06056 | 20295 ft | 365 kts | 226° |
| 2026-05-05 20:38 | 33.62795 | -96.07978 | 19713 ft | 363 kts | 225° |
| 2026-05-05 20:38 | 33.60850 | -96.09889 | 19135 ft | 360 kts | 225° |
| 2026-05-05 20:38 | 33.58920 | -96.11785 | 18564 ft | 357 kts | 224° |
| 2026-05-05 20:38 | 33.57006 | -96.13663 | 17993 ft | 355 kts | 224° |
| 2026-05-05 20:39 | 33.55099 | -96.15532 | 17372 ft | 352 kts | 224° |
| 2026-05-05 20:39 | 33.53211 | -96.17388 | 16806 ft | 350 kts | 224° |
| 2026-05-05 20:39 | 33.51334 | -96.19232 | 16253 ft | 349 kts | 224° |
| 2026-05-05 20:39 | 33.49463 | -96.21064 | 15900 ft | 346 kts | 223° |
| 2026-05-05 20:40 | 33.47590 | -96.22896 | 15823 ft | 348 kts | 223° |
| 2026-05-05 20:40 | 33.45715 | -96.24729 | 15696 ft | 348 kts | 223° |
| 2026-05-05 20:40 | 33.43995 | -96.26648 | 15539 ft | 323 kts | 232° |
| 2026-05-05 20:40 | 33.42579 | -96.28602 | 15172 ft | 302 kts | 232° |
| 2026-05-05 20:41 | 33.41217 | -96.30479 | 14459 ft | 296 kts | 232° |
| 2026-05-05 20:41 | 33.39875 | -96.32327 | 13710 ft | 293 kts | 232° |
| 2026-05-05 20:41 | 33.38545 | -96.34157 | 13047 ft | 289 kts | 232° |
| 2026-05-05 20:41 | 33.37232 | -96.35966 | 12475 ft | 288 kts | 232° |
| 2026-05-05 20:42 | 33.35918 | -96.37773 | 11922 ft | 287 kts | 232° |
| 2026-05-05 20:42 | 33.34639 | -96.39533 | 11533 ft | 273 kts | 232° |
| 2026-05-05 20:42 | 33.33428 | -96.41216 | 11281 ft | 264 kts | 234° |
| 2026-05-05 20:42 | 33.32471 | -96.43072 | 11052 ft | 261 kts | 247° |
| 2026-05-05 20:43 | 33.31860 | -96.45113 | 10813 ft | 261 kts | 252° |
| 2026-05-05 20:43 | 33.31292 | -96.47171 | 10578 ft | 261 kts | 251° |
| 2026-05-05 20:43 | 33.30719 | -96.49219 | 10344 ft | 256 kts | 251° |
| 2026-05-05 20:43 | 33.30164 | -96.51180 | 10114 ft | 250 kts | 251° |
| 2026-05-05 20:44 | 33.29609 | -96.53145 | 9887 ft | 250 kts | 251° |
| 2026-05-05 20:44 | 33.29055 | -96.55111 | 9666 ft | 249 kts | 251° |
| 2026-05-05 20:44 | 33.28670 | -96.57130 | 9563 ft | 251 kts | 264° |
| 2026-05-05 20:44 | 33.28570 | -96.59218 | 9335 ft | 251 kts | 265° |
| 2026-05-05 20:45 | 33.28390 | -96.63365 | 8969 ft | 249 kts | 265° |
| 2026-05-05 20:45 | 33.28297 | -96.65428 | 8689 ft | 248 kts | 265° |
| 2026-05-05 20:45 | 33.28202 | -96.67480 | 8396 ft | 247 kts | 265° |
| 2026-05-05 20:46 | 33.28108 | -96.69525 | 8103 ft | 246 kts | 265° |
| 2026-05-05 20:46 | 33.28015 | -96.71564 | 7808 ft | 246 kts | 265° |
| 2026-05-05 20:46 | 33.27921 | -96.73600 | 7513 ft | 245 kts | 265° |
| 2026-05-05 20:46 | 33.27827 | -96.75607 | 7327 ft | 239 kts | 265° |
| 2026-05-05 20:47 | 33.27735 | -96.77587 | 7011 ft | 240 kts | 265° |
| 2026-05-05 20:47 | 33.27641 | -96.79567 | 6739 ft | 239 kts | 265° |
| 2026-05-05 20:47 | 33.27546 | -96.81541 | 6495 ft | 237 kts | 266° |
| 2026-05-05 20:47 | 33.27452 | -96.83516 | 6198 ft | 237 kts | 266° |
| 2026-05-05 20:48 | 33.27365 | -96.85478 | 5998 ft | 234 kts | 266° |
| 2026-05-05 20:48 | 33.27292 | -96.87418 | 5995 ft | 235 kts | 266° |
| 2026-05-05 20:48 | 33.27225 | -96.89366 | 5994 ft | 235 kts | 267° |
| 2026-05-05 20:48 | 33.27157 | -96.91317 | 5996 ft | 235 kts | 266° |
| 2026-05-05 20:49 | 33.27086 | -96.93271 | 5998 ft | 236 kts | 266° |
| 2026-05-05 20:49 | 33.27013 | -96.95225 | 5999 ft | 235 kts | 266° |
| 2026-05-05 20:49 | 33.26937 | -96.97178 | 6002 ft | 236 kts | 266° |
| 2026-05-05 20:49 | 33.26863 | -96.99130 | 6004 ft | 235 kts | 266° |
| 2026-05-05 20:50 | 33.26569 | -97.00995 | 6005 ft | 223 kts | 247° |
| 2026-05-05 20:50 | 33.26049 | -97.02024 | 6005 ft | 216 kts | 231° |
| 2026-05-05 20:50 | 33.24862 | -97.03099 | 6008 ft | 220 kts | 203° |
| 2026-05-05 20:50 | 33.23316 | -97.03083 | 6007 ft | 233 kts | 165° |
| 2026-05-05 20:51 | 33.21801 | -97.02331 | 6005 ft | 234 kts | 171° |
| 2026-05-05 20:51 | 33.20231 | -97.02315 | 6010 ft | 225 kts | 193° |
| 2026-05-05 20:51 | 33.18154 | -97.02463 | 5641 ft | 228 kts | 186° |
| 2026-05-05 20:51 | 33.17074 | -97.02469 | 5371 ft | 231 kts | 184° |
| 2026-05-05 20:52 | 33.15458 | -97.02471 | 5047 ft | 233 kts | 184° |
| 2026-05-05 20:52 | 33.13839 | -97.02478 | 4745 ft | 232 kts | 185° |
| 2026-05-05 20:52 | 33.12221 | -97.02487 | 4443 ft | 232 kts | 185° |
| 2026-05-05 20:52 | 33.10604 | -97.02496 | 4139 ft | 233 kts | 184° |
| 2026-05-05 20:53 | 33.08985 | -97.02504 | 3836 ft | 232 kts | 185° |
| 2026-05-05 20:53 | 33.07371 | -97.02513 | 3535 ft | 232 kts | 186° |
| 2026-05-05 20:53 | 33.05761 | -97.02521 | 3246 ft | 231 kts | 184° |
| 2026-05-05 20:53 | 33.04149 | -97.02530 | 2953 ft | 231 kts | 185° |
| 2026-05-05 20:54 | 33.02567 | -97.02537 | 2659 ft | 223 kts | 184° |
| 2026-05-05 20:54 | 33.01060 | -97.02544 | 2394 ft | 210 kts | 185° |
| 2026-05-05 20:54 | 32.99654 | -97.02551 | 2134 ft | 193 kts | 184° |
| 2026-05-05 20:54 | 32.98351 | -97.02558 | 1890 ft | 182 kts | 186° |
| 2026-05-05 20:55 | 32.97142 | -97.02564 | 1668 ft | 166 kts | 186° |
| 2026-05-05 20:55 | 32.96025 | -97.02569 | 1470 ft | 160 kts | 185° |
| 2026-05-05 20:55 | 32.94950 | -97.02562 | 1265 ft | 150 kts | 185° |
| 2026-05-05 20:55 | 32.93921 | -97.02566 | 1061 ft | 145 kts | 182° |
| 2026-05-05 20:56 | 32.92899 | -97.02585 | 823 ft | 147 kts | 185° |
| 2026-05-05 20:56 | 32.91901 | -97.02585 | 681 ft | 142 kts | 185° |
| 2026-05-05 20:56 | 32.90934 | -97.02609 | 574 ft | 128 kts | 186° |
| 2026-05-05 20:56 | 32.90006 | -97.02606 | 842 ft | 139 kts | 182° |
| 2026-05-05 20:57 | 32.88973 | -97.02560 | 1186 ft | 156 kts | 184° |
| 2026-05-05 20:57 | 32.87845 | -97.02438 | 1553 ft | 169 kts | 180° |
| 2026-05-05 20:57 | 32.86647 | -97.02303 | 2029 ft | 179 kts | 180° |
| 2026-05-05 20:57 | 32.85370 | -97.02136 | 2510 ft | 189 kts | 176° |
| 2026-05-05 20:58 | 32.84048 | -97.01932 | 2960 ft | 196 kts | 176° |
| 2026-05-05 20:58 | 32.82652 | -97.01552 | 3296 ft | 219 kts | 155° |
| 2026-05-05 20:58 | 32.81512 | -97.00290 | 3842 ft | 234 kts | 121° |
| 2026-05-05 20:58 | 32.81022 | -96.98426 | 4551 ft | 242 kts | 93° |
| 2026-05-05 20:59 | 32.81261 | -96.96444 | 5278 ft | 245 kts | 70° |
| 2026-05-05 20:59 | 32.82143 | -96.94717 | 5835 ft | 248 kts | 40° |
| 2026-05-05 20:59 | 32.83596 | -96.93705 | 5978 ft | 241 kts | 11° |
| 2026-05-05 20:59 | 32.85229 | -96.93314 | 6010 ft | 239 kts | 4° |
| 2026-05-05 21:00 | 32.86868 | -96.93042 | 6010 ft | 237 kts | 3° |
| 2026-05-05 21:00 | 32.88502 | -96.92786 | 6013 ft | 236 kts | 2° |
| 2026-05-05 21:00 | 32.90135 | -96.92530 | 6013 ft | 237 kts | 2° |
| 2026-05-05 21:00 | 32.91766 | -96.92279 | 6014 ft | 237 kts | 2° |
| 2026-05-05 21:01 | 32.93403 | -96.92023 | 6015 ft | 237 kts | 2° |
| 2026-05-05 21:01 | 32.95040 | -96.91767 | 6014 ft | 238 kts | 2° |
| 2026-05-05 21:01 | 32.96682 | -96.91513 | 6021 ft | 238 kts | 2° |
| 2026-05-05 21:01 | 32.98328 | -96.91251 | 6019 ft | 240 kts | 2° |
| 2026-05-05 21:02 | 32.99983 | -96.90979 | 6016 ft | 240 kts | 2° |
| 2026-05-05 21:02 | 33.01634 | -96.90712 | 6015 ft | 240 kts | 2° |
| 2026-05-05 21:02 | 33.03287 | -96.90443 | 6015 ft | 240 kts | 2° |
| 2026-05-05 21:02 | 33.04942 | -96.90168 | 5985 ft | 240 kts | 2° |
| 2026-05-05 21:03 | 33.06594 | -96.89894 | 5983 ft | 240 kts | 2° |
| 2026-05-05 21:03 | 33.08243 | -96.89610 | 5987 ft | 240 kts | 2° |
| 2026-05-05 21:03 | 33.09898 | -96.89336 | 5987 ft | 239 kts | 2° |
| 2026-05-05 21:03 | 33.11549 | -96.89060 | 5990 ft | 239 kts | 2° |
| 2026-05-05 21:04 | 33.13184 | -96.88989 | 5989 ft | 231 kts | 341° |
| 2026-05-05 21:04 | 33.14612 | -96.89715 | 5992 ft | 218 kts | 314° |
| 2026-05-05 21:04 | 33.15442 | -96.91139 | 5748 ft | 207 kts | 284° |
| 2026-05-05 21:04 | 33.15718 | -96.92828 | 5414 ft | 209 kts | 276° |
| 2026-05-05 21:05 | 33.15858 | -96.94562 | 5107 ft | 211 kts | 271° |
| 2026-05-05 21:05 | 33.15883 | -96.96297 | 5001 ft | 209 kts | 269° |
| 2026-05-05 21:05 | 33.15888 | -96.97989 | 4997 ft | 197 kts | 269° |
| 2026-05-05 21:05 | 33.15815 | -96.99548 | 4991 ft | 181 kts | 251° |
| 2026-05-05 21:06 | 33.15192 | -97.00802 | 4891 ft | 176 kts | 231° |
| 2026-05-05 21:06 | 33.14266 | -97.01752 | 4779 ft | 177 kts | 215° |
| 2026-05-05 21:06 | 33.13133 | -97.02338 | 4589 ft | 180 kts | 198° |
| 2026-05-05 21:06 | 33.11866 | -97.02492 | 4369 ft | 186 kts | 186° |
| 2026-05-05 21:07 | 33.10572 | -97.02497 | 4126 ft | 186 kts | 186° |
| 2026-05-05 21:07 | 33.09276 | -97.02503 | 3884 ft | 184 kts | 186° |
| 2026-05-05 21:07 | 33.08005 | -97.02509 | 3659 ft | 186 kts | 185° |
| 2026-05-05 21:07 | 33.06701 | -97.02516 | 3414 ft | 184 kts | 187° |
| 2026-05-05 21:08 | 33.05415 | -97.02523 | 3177 ft | 185 kts | 184° |
| 2026-05-05 21:08 | 33.04147 | -97.02530 | 2934 ft | 184 kts | 186° |
| 2026-05-05 21:08 | 33.02876 | -97.02537 | 2701 ft | 185 kts | 184° |
| 2026-05-05 21:08 | 33.01578 | -97.02544 | 2455 ft | 183 kts | 185° |
| 2026-05-05 21:09 | 33.00327 | -97.02550 | 2239 ft | 183 kts | 184° |
| 2026-05-05 21:09 | 32.99071 | -97.02557 | 2001 ft | 176 kts | 184° |
| 2026-05-05 21:09 | 32.97895 | -97.02561 | 1804 ft | 161 kts | 184° |
| 2026-05-05 21:09 | 32.96823 | -97.02566 | 1596 ft | 148 kts | 186° |
| 2026-05-05 21:10 | 32.95774 | -97.02575 | 1425 ft | 145 kts | 186° |
| 2026-05-05 21:10 | 32.94799 | -97.02605 | 1244 ft | 139 kts | 184° |
| 2026-05-05 21:10 | 32.93815 | -97.02589 | 1060 ft | 144 kts | 181° |
| 2026-05-05 21:10 | 32.92844 | -97.02582 | 861 ft | 139 kts | 185° |
| 2026-05-05 21:11 | 32.91884 | -97.02588 | 670 ft | 138 kts | 185° |
| 2026-05-05 21:11 | 32.90947 | -97.02598 | 573 ft | 124 kts | 182° |
| 2026-05-05 21:11 | 32.90255 | -97.02605 | 575 ft | 75 kts | 179° |
| 2026-05-05 21:11 | 32.89979 | -97.02652 | 575 ft | 27 kts | 206° |
| 2026-05-05 21:12 | 32.89813 | -97.02758 | 568 ft | 18 kts | 210° |
| 2026-05-05 21:12 | 32.89740 | -97.02801 | 570 ft | 12 kts | 190° |
| 2026-05-05 21:12 | 32.89657 | -97.02806 | 572 ft | 13 kts | 183° |
| 2026-05-05 21:12 | 32.89562 | -97.02804 | 575 ft | 15 kts | 180° |
| 2026-05-05 21:13 | 32.89447 | -97.02804 | 573 ft | 15 kts | 180° |
| 2026-05-05 21:13 | 32.89393 | -97.02845 | 572 ft | 9 kts | 262° |
| 2026-05-05 21:13 | 32.89394 | -97.02915 | 575 ft | 8 kts | 270° |
| 2026-05-05 21:13 | 32.89394 | -97.02984 | 576 ft | 9 kts | 270° |
| 2026-05-05 21:14 | 32.89394 | -97.03066 | 576 ft | 11 kts | 270° |
| 2026-05-05 21:14 | 32.89394 | -97.03173 | 576 ft | 14 kts | 271° |
| 2026-05-05 21:14 | 32.89395 | -97.03272 | 583 ft | 5 kts | 270° |
| 2026-05-05 21:14 | 32.89395 | -97.03302 | 584 ft | 2 kts | 267° |
| 2026-05-05 21:15 | 32.89390 | -97.03310 | 585 ft | 1 kts | 232° |
| 2026-05-05 21:15 | 32.89373 | -97.03318 | 585 ft | 4 kts | 191° |
| 2026-05-05 21:15 | 32.89328 | -97.03318 | 584 ft | 8 kts | 180° |
| 2026-05-05 21:15 | 32.89258 | -97.03318 | 583 ft | 12 kts | 180° |
| 2026-05-05 21:16 | 32.89197 | -97.03319 | 583 ft | 9 kts | 180° |
| 2026-05-05 21:16 | 32.89127 | -97.03319 | 583 ft | 12 kts | 180° |
| 2026-05-05 21:16 | 32.89036 | -97.03319 | 583 ft | 15 kts | 180° |
| 2026-05-05 21:16 | 32.88974 | -97.03329 | 583 ft | 6 kts | 223° |
| 2026-05-05 21:17 | 32.88973 | -97.03371 | 584 ft | 4 kts | 279° |
| 2026-05-05 21:17 | 32.88975 | -97.03402 | 584 ft | 4 kts | 271° |
| 2026-05-05 21:17 | 32.88976 | -97.03428 | 584 ft | 3 kts | 271° |
| 2026-05-05 21:17 | 32.88966 | -97.03453 | 584 ft | 3 kts | 218° |
| 2026-05-05 21:18 | 32.88941 | -97.03464 | 584 ft | 5 kts | 200° |
| 2026-05-05 21:18 | 32.88929 | -97.03469 | 584 ft | 1 kts | 200° |
| 2026-05-05 21:18 | 32.88922 | -97.03474 | 584 ft | 2 kts | 211° |
| 2026-05-05 21:18 | 32.88905 | -97.03498 | 584 ft | 5 kts | 229° |
| 2026-05-05 21:19 | 32.88907 | -97.03531 | 584 ft | 3 kts | 306° |
| 2026-05-05 21:19 | 32.88916 | -97.03548 | 584 ft | 2 kts | 304° |
| 2026-05-05 21:19 | 32.88917 | -97.03548 | 584 ft | 0 kts | 304° |